createdAt,value
2018-09-28T00:00:39.225Z,99.90
2018-09-28T00:03:08.394Z,99.90
2018-09-28T00:05:37.549Z,99.90
2018-09-28T00:08:06.915Z,99.90
2018-09-28T00:10:36.510Z,99.90
2018-09-28T00:13:05.638Z,99.90
2018-09-28T00:15:35.430Z,99.90
2018-09-28T00:18:04.586Z,99.90
2018-09-28T00:20:33.704Z,99.90
2018-09-28T00:23:02.835Z,99.90
2018-09-28T00:25:32.513Z,99.90
2018-09-28T00:28:01.673Z,99.90
2018-09-28T00:30:31.102Z,99.90
2018-09-28T00:33:00.219Z,99.90
2018-09-28T00:35:30.742Z,99.90
2018-09-28T00:37:59.866Z,99.90
2018-09-28T00:40:29.679Z,99.90
2018-09-28T00:42:58.837Z,99.90
2018-09-28T00:45:29.119Z,99.90
2018-09-28T00:48:00.988Z,99.90
2018-09-28T00:50:30.118Z,99.90
2018-09-28T00:52:59.251Z,99.90
2018-09-28T00:55:28.402Z,99.90
2018-09-28T00:57:57.562Z,99.90
2018-09-28T01:00:26.825Z,99.90
2018-09-28T01:02:55.958Z,99.90
2018-09-28T01:05:25.077Z,99.90
2018-09-28T01:07:56.677Z,99.90
2018-09-28T01:10:25.909Z,99.90
2018-09-28T01:12:55.161Z,99.90
2018-09-28T01:15:24.509Z,99.90
2018-09-28T01:17:53.585Z,99.90
2018-09-28T01:20:22.758Z,99.90
2018-09-28T01:22:51.913Z,99.90
2018-09-28T01:25:21.049Z,99.90
2018-09-28T01:27:50.191Z,99.90
2018-09-28T01:30:19.758Z,99.90
2018-09-28T01:32:48.981Z,99.90
2018-09-28T01:35:18.241Z,99.90
2018-09-28T01:37:48.130Z,99.90
2018-09-28T01:40:18.670Z,99.90
2018-09-28T01:42:54.786Z,99.90
2018-09-28T01:45:24.018Z,99.90
2018-09-28T01:47:53.254Z,99.90
2018-09-28T01:50:23.239Z,99.90
2018-09-28T01:52:52.801Z,99.90
2018-09-28T01:55:22.602Z,99.90
2018-09-28T01:57:51.742Z,99.90
2018-09-28T02:00:20.960Z,99.90
2018-09-28T02:02:50.109Z,99.90
2018-09-28T02:05:21.335Z,99.90
2018-09-28T02:07:51.210Z,99.90
2018-09-28T02:10:20.961Z,99.90
2018-09-28T02:12:50.218Z,99.90
2018-09-28T02:15:19.410Z,99.90
2018-09-28T02:17:48.797Z,99.90
2018-09-28T02:20:18.491Z,99.90
2018-09-28T02:22:47.780Z,99.90
2018-09-28T02:25:17.102Z,99.90
2018-09-28T02:27:46.514Z,99.90
2018-09-28T02:30:16.157Z,99.90
2018-09-28T02:32:45.407Z,99.90
2018-09-28T02:35:14.653Z,99.90
2018-09-28T02:37:43.972Z,99.90
2018-09-28T02:40:13.397Z,99.90
2018-09-28T02:42:43.314Z,99.90
2018-09-28T02:45:12.610Z,99.90
2018-09-28T02:47:42.030Z,99.90
2018-09-28T02:50:11.218Z,99.90
2018-09-28T02:52:40.400Z,99.90
2018-09-28T02:55:09.570Z,99.90
2018-09-28T02:57:38.694Z,99.90
2018-09-28T03:00:07.822Z,99.90
2018-09-28T03:02:36.988Z,99.90
2018-09-28T03:05:06.283Z,99.90
2018-09-28T03:07:35.441Z,99.90
2018-09-28T03:10:04.759Z,99.90
2018-09-28T03:12:33.992Z,99.90
2018-09-28T03:15:03.460Z,99.90
2018-09-28T03:17:32.685Z,99.90
2018-09-28T03:20:02.219Z,99.90
2018-09-28T03:22:32.146Z,99.90
2018-09-28T03:25:01.358Z,99.90
2018-09-28T03:27:30.503Z,99.90
2018-09-28T03:29:59.599Z,99.90
2018-09-28T03:32:28.734Z,99.90
2018-09-28T03:34:58.407Z,99.90
2018-09-28T03:37:27.553Z,99.90
2018-09-28T03:39:56.702Z,99.90
2018-09-28T03:42:25.870Z,99.90
2018-09-28T03:44:55.705Z,99.90
2018-09-28T03:47:24.850Z,99.90
2018-09-28T03:49:53.982Z,99.90
2018-09-28T03:52:23.095Z,99.90
2018-09-28T03:54:52.246Z,99.90
2018-09-28T03:57:21.774Z,99.90
2018-09-28T03:59:51.062Z,99.90
2018-09-28T04:02:20.455Z,99.90
2018-09-28T04:04:49.578Z,99.90
2018-09-28T04:07:18.747Z,99.90
2018-09-28T04:09:47.946Z,99.90
2018-09-28T04:12:17.148Z,99.90
2018-09-28T04:14:46.450Z,99.90
2018-09-28T04:17:15.622Z,99.90
2018-09-28T04:19:44.776Z,99.90
2018-09-28T04:22:13.939Z,99.90
2018-09-28T04:24:43.267Z,99.90
2018-09-28T04:27:12.787Z,99.90
2018-09-28T04:29:41.902Z,99.90
2018-09-28T04:32:11.062Z,99.90
2018-09-28T04:34:40.810Z,99.90
2018-09-28T04:37:10.602Z,99.90
2018-09-28T04:39:39.706Z,99.90
2018-09-28T04:42:08.941Z,99.90
2018-09-28T04:44:38.156Z,99.90
2018-09-28T04:47:07.447Z,99.90
2018-09-28T04:49:37.189Z,99.90
2018-09-28T04:52:07.246Z,99.90
2018-09-28T04:54:36.652Z,99.90
2018-09-28T04:57:05.910Z,99.90
2018-09-28T04:59:35.642Z,99.90
2018-09-28T05:02:05.302Z,99.90
2018-09-28T05:04:34.639Z,99.90
2018-09-28T05:10:05.271Z,99.90
2018-09-28T05:12:34.454Z,99.90
2018-09-28T05:15:03.610Z,99.90
2018-09-28T05:17:32.726Z,99.90
2018-09-28T05:20:02.079Z,99.90
2018-09-28T05:22:31.219Z,99.90
2018-09-28T05:25:00.355Z,99.90
2018-09-28T05:27:31.653Z,99.90
2018-09-28T05:30:04.887Z,99.90
2018-09-28T05:32:36.530Z,99.90
2018-09-28T05:35:05.586Z,99.90
2018-09-28T05:37:34.732Z,99.90
2018-09-28T05:40:03.979Z,99.90
2018-09-28T05:42:34.642Z,99.90
2018-09-28T05:45:03.822Z,99.90
2018-09-28T05:47:33.036Z,99.90
2018-09-28T05:50:02.388Z,99.90
2018-09-28T05:52:31.554Z,99.90
2018-09-28T05:55:00.835Z,99.90
2018-09-28T05:57:30.049Z,99.90
2018-09-28T06:00:04.510Z,99.90
2018-09-28T06:02:39.011Z,99.90
2018-09-28T06:05:13.396Z,99.90
2018-09-28T06:07:42.566Z,99.90
2018-09-28T06:10:11.788Z,99.90
2018-09-28T06:12:41.188Z,99.90
2018-09-28T06:15:10.318Z,99.90
2018-09-28T06:17:39.434Z,99.90
2018-09-28T06:20:08.737Z,99.90
2018-09-28T06:22:37.962Z,99.90
2018-09-28T06:25:07.276Z,99.90
2018-09-28T06:27:36.453Z,99.90
2018-09-28T06:30:05.733Z,99.90
2018-09-28T06:32:34.888Z,99.90
2018-09-28T06:35:04.093Z,99.90
2018-09-28T06:37:33.686Z,99.90
2018-09-28T06:40:02.986Z,99.90
2018-09-28T06:42:32.384Z,99.90
2018-09-28T06:45:01.795Z,99.90
2018-09-28T06:47:31.671Z,99.90
2018-09-28T06:50:01.143Z,99.90
2018-09-28T06:52:30.497Z,99.90
2018-09-28T06:54:59.798Z,99.90
2018-09-28T06:57:29.066Z,99.90
2018-09-28T06:59:58.568Z,99.90
2018-09-28T07:02:27.807Z,99.90
2018-09-28T07:04:57.054Z,99.90
2018-09-28T07:07:26.440Z,99.90
2018-09-28T07:09:55.746Z,99.90
2018-09-28T07:12:25.031Z,99.90
2018-09-28T07:14:54.254Z,99.90
2018-09-28T07:17:23.947Z,99.90
2018-09-28T07:19:53.439Z,99.90
2018-09-28T07:22:23.547Z,99.90
2018-09-28T07:24:52.789Z,99.90
2018-09-28T07:27:21.921Z,99.90
2018-09-28T07:29:51.187Z,99.90
2018-09-28T07:32:20.288Z,99.90
2018-09-28T07:34:49.549Z,99.90
2018-09-28T07:37:19.329Z,99.90
2018-09-28T07:39:48.443Z,99.90
2018-09-28T07:42:17.739Z,99.90
2018-09-28T07:44:46.915Z,99.90
2018-09-28T07:47:16.170Z,99.90
2018-09-28T07:49:45.362Z,99.40
2018-09-28T07:52:14.578Z,99.90
2018-09-28T07:54:43.762Z,99.90
2018-09-28T07:57:12.969Z,99.80
2018-09-28T07:59:42.141Z,99.60
2018-09-28T08:02:11.281Z,99.50
2018-09-28T08:04:40.481Z,99.40
2018-09-28T08:07:10.030Z,98.50
2018-09-28T08:09:39.261Z,99.10
2018-09-28T08:12:08.442Z,99.60
2018-09-28T08:14:37.637Z,99.80
2018-09-28T08:17:06.806Z,98.50
2018-09-28T08:19:36.002Z,96.80
2018-09-28T08:22:05.195Z,94.40
2018-09-28T08:24:34.443Z,95.20
2018-09-28T08:27:03.643Z,94.40
2018-09-28T08:29:32.783Z,95.20
2018-09-28T08:32:01.984Z,94.60
2018-09-28T08:34:31.226Z,92.60
2018-09-28T08:37:00.778Z,91.50
2018-09-28T08:39:30.444Z,90.00
2018-09-28T08:41:59.980Z,90.90
2018-09-28T08:44:29.698Z,90.90
2018-09-28T08:46:58.868Z,90.60
2018-09-28T08:49:28.815Z,88.90
2018-09-28T08:51:58.477Z,89.60
2018-09-28T08:54:27.995Z,86.00
2018-09-28T08:56:57.525Z,90.60
2018-09-28T08:59:26.769Z,91.90
2018-09-28T09:01:55.981Z,91.20
2018-09-28T09:04:25.288Z,91.40
2018-09-28T09:06:55.012Z,90.50
2018-09-28T09:09:24.247Z,88.30
2018-09-28T09:11:53.500Z,87.70
2018-09-28T09:14:22.706Z,86.90
2018-09-28T09:16:51.894Z,87.30
2018-09-28T09:19:21.062Z,86.30
2018-09-28T09:21:50.211Z,84.60
2018-09-28T09:24:19.493Z,82.50
2018-09-28T09:26:48.693Z,81.00
2018-09-28T09:29:18.356Z,77.50
2018-09-28T09:31:47.557Z,78.10
2018-09-28T09:34:16.705Z,82.80
2018-09-28T09:36:45.942Z,82.90
2018-09-28T09:39:15.124Z,81.00
2018-09-28T09:41:44.303Z,79.40
2018-09-28T09:44:13.659Z,79.50
2018-09-28T09:46:43.987Z,78.90
2018-09-28T09:49:13.723Z,77.50
2018-09-28T09:51:42.929Z,81.50
2018-09-28T09:54:12.099Z,81.60
2018-09-28T09:56:41.670Z,85.70
2018-09-28T09:59:10.850Z,80.70
2018-09-28T10:01:45.332Z,80.90
2018-09-28T10:04:14.534Z,79.20
2018-09-28T10:06:43.756Z,80.50
2018-09-28T10:09:14.006Z,81.60
2018-09-28T10:11:43.661Z,81.40
2018-09-28T10:14:12.854Z,81.80
2018-09-28T10:16:42.785Z,84.30
2018-09-28T10:19:12.123Z,85.20
2018-09-28T10:21:41.727Z,84.80
2018-09-28T10:24:11.632Z,86.50
2018-09-28T10:26:40.846Z,87.10
2018-09-28T10:29:10.050Z,87.70
2018-09-28T10:31:39.195Z,83.80
2018-09-28T10:34:08.408Z,86.40
2018-09-28T10:36:37.559Z,87.90
2018-09-28T10:39:08.479Z,86.40
2018-09-28T10:41:37.606Z,83.90
2018-09-28T10:44:07.015Z,80.10
2018-09-28T10:46:36.466Z,77.00
2018-09-28T10:49:05.765Z,75.00
2018-09-28T10:51:35.771Z,74.40
2018-09-28T10:54:05.000Z,74.00
2018-09-28T10:56:34.188Z,71.20
2018-09-28T10:59:03.354Z,68.00
2018-09-28T11:01:32.579Z,67.20
2018-09-28T11:04:09.176Z,67.20
2018-09-28T11:06:38.599Z,69.30
2018-09-28T11:09:10.205Z,69.40
2018-09-28T11:11:39.817Z,69.50
2018-09-28T11:14:09.098Z,67.60
2018-09-28T11:16:38.879Z,68.20
2018-09-28T11:19:08.099Z,73.20
2018-09-28T11:21:37.331Z,78.40
2018-09-28T11:24:06.566Z,78.80
2018-09-28T11:26:36.251Z,79.10
2018-09-28T11:29:05.563Z,76.70
2018-09-28T11:31:34.789Z,72.60
2018-09-28T11:34:03.998Z,70.90
2018-09-28T11:36:34.269Z,69.10
2018-09-28T11:39:05.343Z,67.40
2018-09-28T11:41:34.738Z,64.70
2018-09-28T11:44:03.901Z,66.70
2018-09-28T11:46:33.462Z,68.00
2018-09-28T11:49:03.082Z,69.70
2018-09-28T11:51:32.703Z,72.00
2018-09-28T11:54:01.924Z,73.20
2018-09-28T11:56:31.132Z,70.90
2018-09-28T11:59:00.298Z,69.30
2018-09-28T12:01:29.452Z,68.60
2018-09-28T12:03:58.618Z,68.00
2018-09-28T12:06:27.883Z,68.70
2018-09-28T12:08:57.373Z,72.10
2018-09-28T12:11:26.519Z,68.40
2018-09-28T12:13:55.775Z,70.60
2018-09-28T12:16:24.956Z,72.80
2018-09-28T12:18:54.169Z,72.90
2018-09-28T12:21:23.489Z,71.40
2018-09-28T12:23:52.545Z,68.80
2018-09-28T12:26:21.923Z,68.50
2018-09-28T12:28:51.262Z,70.00
2018-09-28T12:31:20.906Z,70.10
2018-09-28T12:33:50.109Z,69.90
2018-09-28T12:36:19.661Z,69.80
2018-09-28T12:38:48.890Z,66.70
2018-09-28T12:41:18.106Z,64.90
2018-09-28T12:43:47.443Z,64.90
2018-09-28T12:46:16.879Z,66.30
2018-09-28T12:48:46.272Z,66.20
2018-09-28T12:51:15.576Z,68.40
2018-09-28T12:53:44.856Z,68.70
2018-09-28T12:56:14.251Z,69.60
2018-09-28T12:58:43.407Z,70.00
2018-09-28T13:01:12.734Z,67.00
2018-09-28T13:03:42.794Z,69.10
2018-09-28T13:06:12.079Z,68.60
2018-09-28T13:08:41.223Z,67.80
2018-09-28T13:11:10.407Z,66.70
2018-09-28T13:13:39.563Z,67.70
2018-09-28T13:16:09.303Z,68.10
2018-09-28T13:18:38.551Z,68.00
2018-09-28T13:21:07.799Z,67.60
2018-09-28T13:23:36.903Z,67.10
2018-09-28T13:26:06.318Z,66.50
2018-09-28T13:28:35.491Z,67.10
2018-09-28T13:31:04.663Z,69.20
2018-09-28T13:33:33.834Z,69.70
2018-09-28T13:36:03.002Z,68.90
2018-09-28T13:38:32.353Z,69.70
2018-09-28T13:41:01.369Z,69.90
2018-09-28T13:43:30.538Z,68.20
2018-09-28T13:45:59.830Z,71.60
2018-09-28T13:48:28.995Z,72.20
2018-09-28T13:50:58.294Z,73.80
2018-09-28T13:53:27.734Z,73.70
2018-09-28T13:55:56.986Z,76.20
2018-09-28T13:58:26.244Z,75.90
2018-09-28T14:00:55.390Z,76.60
2018-09-28T14:03:25.698Z,75.80
2018-09-28T14:05:55.517Z,75.70
2018-09-28T14:08:24.960Z,78.40
2018-09-28T14:10:54.819Z,79.20
2018-09-28T14:13:23.987Z,78.80
2018-09-28T14:15:53.705Z,79.90
2018-09-28T14:18:23.735Z,79.20
2018-09-28T14:20:53.028Z,79.00
2018-09-28T14:23:22.554Z,78.20
2018-09-28T14:25:51.792Z,76.30
2018-09-28T14:28:21.170Z,74.70
2018-09-28T14:30:50.764Z,71.50
2018-09-28T14:33:19.940Z,71.60
2018-09-28T14:35:49.187Z,71.50
2018-09-28T14:38:18.536Z,69.20
2018-09-28T14:40:47.957Z,69.10
2018-09-28T14:43:17.114Z,68.70
2018-09-28T14:45:48.922Z,67.40
2018-09-28T14:48:18.418Z,68.10
2018-09-28T14:50:48.504Z,68.20
2018-09-28T14:53:19.538Z,66.80
2018-09-28T14:55:48.997Z,67.60
2018-09-28T14:58:18.435Z,66.50
2018-09-28T15:00:47.781Z,67.70
2018-09-28T15:03:17.915Z,66.60
2018-09-28T15:05:47.046Z,66.20
2018-09-28T15:08:16.979Z,66.70
2018-09-28T15:10:46.163Z,67.60
2018-09-28T15:13:15.342Z,69.80
2018-09-28T15:15:44.577Z,72.20
2018-09-28T15:18:14.624Z,73.20
2018-09-28T15:20:44.715Z,73.90
2018-09-28T15:23:13.990Z,74.20
2018-09-28T15:25:43.970Z,74.30
2018-09-28T15:28:14.479Z,74.30
2018-09-28T15:30:45.275Z,74.20
2018-09-28T15:33:16.118Z,75.00
2018-09-28T15:35:45.862Z,75.50
2018-09-28T15:38:15.342Z,76.20
2018-09-28T15:40:44.734Z,77.50
2018-09-28T15:43:13.918Z,77.80
2018-09-28T15:45:43.094Z,78.70
2018-09-28T15:48:12.998Z,79.40
2018-09-28T15:50:42.286Z,80.00
2018-09-28T15:53:11.418Z,80.70
2018-09-28T15:55:40.548Z,81.50
2018-09-28T15:58:09.658Z,82.30
2018-09-28T16:00:38.794Z,82.30
2018-09-28T16:03:07.894Z,83.50
2018-09-28T16:05:37.538Z,83.50
2018-09-28T16:08:06.694Z,83.40
2018-09-28T16:10:35.803Z,84.10
2018-09-28T16:13:04.958Z,84.20
2018-09-28T16:15:34.502Z,84.70
2018-09-28T16:18:03.598Z,85.50
2018-09-28T16:20:32.850Z,85.80
2018-09-28T16:23:02.038Z,86.00
2018-09-28T16:25:31.900Z,86.50
2018-09-28T16:28:01.003Z,87.20
2018-09-28T16:30:30.150Z,87.90
2018-09-28T16:32:59.264Z,88.50
2018-09-28T16:35:28.366Z,88.90
2018-09-28T16:37:57.504Z,90.00
2018-09-28T16:40:26.623Z,90.10
2018-09-28T16:42:55.744Z,90.40
2018-09-28T16:45:25.398Z,90.70
2018-09-28T16:47:54.506Z,90.90
2018-09-28T16:50:23.634Z,90.90
2018-09-28T16:52:53.030Z,91.30
2018-09-28T16:55:22.137Z,91.80
2018-09-28T16:57:51.315Z,92.10
2018-09-28T17:00:20.410Z,92.50
2018-09-28T17:02:49.914Z,92.70
2018-09-28T17:05:19.067Z,93.00
2018-09-28T17:07:48.215Z,93.30
2018-09-28T17:10:17.322Z,93.60
2018-09-28T17:12:46.462Z,93.70
2018-09-28T17:15:15.566Z,94.10
2018-09-28T17:17:44.670Z,94.10
2018-09-28T17:20:14.247Z,94.10
2018-09-28T17:22:43.562Z,94.10
2018-09-28T17:25:12.930Z,94.10
2018-09-28T17:27:42.074Z,94.10
2018-09-28T17:30:11.241Z,93.90
2018-09-28T17:32:40.614Z,93.90
2018-09-28T17:35:09.797Z,94.10
2018-09-28T17:37:38.903Z,94.10
2018-09-28T17:40:08.054Z,93.90
2018-09-28T17:42:37.958Z,93.90
2018-09-28T17:45:07.374Z,93.90
2018-09-28T17:47:36.489Z,93.40
2018-09-28T17:50:05.611Z,93.00
2018-09-28T17:52:35.727Z,93.00
2018-09-28T17:55:04.986Z,92.90
2018-09-28T17:57:34.118Z,93.20
2018-09-28T18:00:03.287Z,93.20
2018-09-28T18:02:32.416Z,93.20
2018-09-28T18:05:01.536Z,92.90
2018-09-28T18:07:30.711Z,92.80
2018-09-28T18:10:00.103Z,92.90
2018-09-28T18:12:29.410Z,92.90
2018-09-28T18:14:58.519Z,93.30
2018-09-28T18:17:27.690Z,93.00
2018-09-28T18:19:56.901Z,93.30
2018-09-28T18:22:26.113Z,93.50
2018-09-28T18:24:55.307Z,93.80
2018-09-28T18:27:24.586Z,94.00
2018-09-28T18:29:55.216Z,94.20
2018-09-28T18:32:24.950Z,94.90
2018-09-28T18:34:55.011Z,95.60
2018-09-28T18:37:24.747Z,96.20
2018-09-28T18:39:54.250Z,96.70
2018-09-28T18:42:23.758Z,96.90
2018-09-28T18:44:53.219Z,97.30
2018-09-28T18:47:22.819Z,97.80
2018-09-28T18:49:52.435Z,98.30
2018-09-28T18:52:21.930Z,98.60
2018-09-28T18:54:51.735Z,98.80
2018-09-28T18:57:21.122Z,99.20
2018-09-28T18:59:50.721Z,99.60
2018-09-28T19:02:20.122Z,99.90
2018-09-28T19:04:49.547Z,99.90
2018-09-28T19:07:18.950Z,99.90
2018-09-28T19:09:48.741Z,99.90
2018-09-28T19:12:18.642Z,99.90
2018-09-28T19:14:48.998Z,99.90
2018-09-28T19:17:18.378Z,99.90
2018-09-28T19:19:48.063Z,99.90
2018-09-28T19:22:17.422Z,99.90
2018-09-28T19:24:48.593Z,99.90
2018-09-28T19:27:18.069Z,99.90
2018-09-28T19:29:48.292Z,99.90
2018-09-28T19:32:17.924Z,99.90
2018-09-28T19:34:47.792Z,99.90
2018-09-28T19:37:19.374Z,99.90
2018-09-28T19:39:48.750Z,99.90
2018-09-28T19:42:18.420Z,99.90
2018-09-28T19:44:47.751Z,99.90
2018-09-28T19:47:17.903Z,99.90
2018-09-28T19:49:47.631Z,99.90
2018-09-28T19:52:16.801Z,99.90
2018-09-28T19:54:46.214Z,99.90
2018-09-28T19:57:16.231Z,99.90
2018-09-28T19:59:46.070Z,99.90
2018-09-28T20:02:15.654Z,99.90
2018-09-28T20:04:45.230Z,99.90
2018-09-28T20:07:15.557Z,99.90
2018-09-28T20:09:45.114Z,99.90
2018-09-28T20:12:15.364Z,99.90
2018-09-28T20:14:45.233Z,99.90
2018-09-28T20:17:14.587Z,99.90
2018-09-28T20:19:43.930Z,99.90
2018-09-28T20:22:14.437Z,99.90
2018-09-28T20:24:44.526Z,99.90
2018-09-28T20:27:14.475Z,99.90
2018-09-28T20:29:44.219Z,99.90
2018-09-28T20:32:14.291Z,99.90
2018-09-28T20:34:43.629Z,99.90
2018-09-28T20:37:13.259Z,99.90
2018-09-28T20:39:42.611Z,99.90
2018-09-28T20:42:11.886Z,99.90
2018-09-28T20:44:41.464Z,99.90
2018-09-28T20:47:10.817Z,99.90
2018-09-28T20:49:40.439Z,99.90
2018-09-28T20:52:10.360Z,99.90
2018-09-28T20:54:40.278Z,99.90
2018-09-28T20:57:09.485Z,99.90
2018-09-28T20:59:40.529Z,99.90
2018-09-28T21:02:09.948Z,99.90
2018-09-28T21:04:41.794Z,99.90
2018-09-28T21:07:11.126Z,99.90
2018-09-28T21:09:40.462Z,99.90
2018-09-28T21:12:10.530Z,99.90
2018-09-28T21:14:44.227Z,99.90
2018-09-28T21:17:13.979Z,99.90
2018-09-28T21:19:43.413Z,99.90
2018-09-28T21:22:12.547Z,99.90
2018-09-28T21:24:42.496Z,99.90
2018-09-28T21:27:11.586Z,99.90
2018-09-28T21:29:40.714Z,99.90
2018-09-28T21:32:11.377Z,99.90
2018-09-28T21:34:40.526Z,99.90
2018-09-28T21:37:09.663Z,99.90
2018-09-28T21:39:39.458Z,99.90
2018-09-28T21:42:08.649Z,99.90
2018-09-28T21:44:37.903Z,99.90
2018-09-28T21:47:07.029Z,99.90
2018-09-28T21:49:36.187Z,99.90
2018-09-28T21:52:05.458Z,99.90
2018-09-28T21:54:36.179Z,99.90
2018-09-28T21:57:05.339Z,99.90
2018-09-28T21:59:34.506Z,99.90
2018-09-28T22:02:04.671Z,99.90
2018-09-28T22:04:34.277Z,99.90
2018-09-28T22:07:03.386Z,99.90
2018-09-28T22:09:32.683Z,99.90
2018-09-28T22:12:01.900Z,99.90
2018-09-28T22:14:31.670Z,99.90
2018-09-28T22:17:04.062Z,99.90
2018-09-28T22:19:33.250Z,99.90
2018-09-28T22:22:02.366Z,99.90
2018-09-28T22:24:33.018Z,99.90
2018-09-28T22:27:02.151Z,99.90
2018-09-28T22:29:31.423Z,99.90
2018-09-28T22:32:07.651Z,99.90
2018-09-28T22:34:36.900Z,99.90
2018-09-28T22:37:06.738Z,99.90
2018-09-28T22:39:36.695Z,99.90
2018-09-28T22:42:05.818Z,99.90
2018-09-28T22:44:34.970Z,99.90
2018-09-28T22:47:04.207Z,99.90
2018-09-28T22:49:33.322Z,99.90
2018-09-28T22:52:02.931Z,99.90
2018-09-28T22:54:32.113Z,99.90
2018-09-28T22:57:01.312Z,99.90
2018-09-28T22:59:30.457Z,99.90
2018-09-28T23:02:00.742Z,99.90
2018-09-28T23:04:30.414Z,99.90
2018-09-28T23:06:59.650Z,99.90
2018-09-28T23:10:32.666Z,99.90
2018-09-28T23:13:01.805Z,99.90
2018-09-28T23:15:30.941Z,99.90
2018-09-28T23:18:00.087Z,99.90
2018-09-28T23:20:29.250Z,99.90
2018-09-28T23:22:58.345Z,99.90
2018-09-28T23:25:30.077Z,99.90
2018-09-28T23:27:59.238Z,99.90
2018-09-28T23:30:28.399Z,99.90
2018-09-28T23:32:57.545Z,99.90
2018-09-28T23:35:27.111Z,99.90
2018-09-28T23:37:56.774Z,99.90
2018-09-28T23:40:26.118Z,99.90
2018-09-28T23:42:56.132Z,99.90
2018-09-28T23:45:25.377Z,99.90
2018-09-28T23:47:54.510Z,99.90
2018-09-28T23:50:24.166Z,99.90
2018-09-28T23:52:53.299Z,99.90
2018-09-28T23:55:22.420Z,99.90
2018-09-28T23:57:51.573Z,99.90
